createdAt,value
2023-04-06T00:00:12.142Z,2.78
2023-04-06T00:02:40.873Z,2.83
2023-04-06T00:05:09.806Z,3.22
2023-04-06T00:07:38.283Z,2.83
2023-04-06T00:10:08.209Z,3.50
2023-04-06T00:12:36.681Z,2.58
2023-04-06T00:15:06.809Z,3.15
2023-04-06T00:17:36.913Z,2.92
2023-04-06T00:20:05.899Z,3.38
2023-04-06T00:22:34.230Z,2.60
2023-04-06T00:25:02.606Z,3.55
2023-04-06T00:27:30.988Z,3.00
2023-04-06T00:29:59.377Z,3.55
2023-04-06T00:32:27.844Z,3.70
2023-04-06T00:34:57.722Z,2.90
2023-04-06T00:37:26.235Z,3.40
2023-04-06T00:39:54.619Z,2.55
2023-04-06T00:42:26.898Z,3.63
2023-04-06T00:44:56.368Z,3.05
2023-04-06T00:47:26.359Z,3.13
2023-04-06T00:49:56.622Z,3.33
2023-04-06T00:52:25.053Z,2.78
2023-04-06T00:54:53.635Z,3.80
2023-04-06T00:57:22.518Z,2.67
2023-04-06T00:59:51.110Z,2.60
2023-04-06T01:02:19.589Z,2.78
2023-04-06T01:04:48.251Z,2.63
2023-04-06T01:07:18.096Z,2.78
2023-04-06T01:09:46.468Z,2.65
2023-04-06T01:12:14.819Z,2.78
2023-04-06T01:14:43.345Z,2.40
2023-04-06T01:17:11.730Z,2.97
2023-04-06T01:19:41.458Z,3.17
2023-04-06T01:22:09.947Z,2.83
2023-04-06T01:24:39.860Z,2.45
2023-04-06T01:27:08.148Z,2.47
2023-04-06T01:29:36.674Z,2.40
2023-04-06T01:32:05.147Z,2.85
2023-04-06T01:34:33.661Z,3.33
2023-04-06T01:37:02.152Z,2.70
2023-04-06T01:39:30.623Z,3.15
2023-04-06T01:42:00.616Z,2.97
2023-04-06T01:44:31.336Z,2.92
2023-04-06T01:46:59.845Z,2.22
2023-04-06T01:49:28.191Z,3.28
2023-04-06T01:51:56.593Z,2.33
2023-04-06T01:54:24.983Z,2.65
2023-04-06T01:56:53.666Z,2.70
2023-04-06T01:59:23.601Z,2.50
2023-04-06T02:01:51.979Z,2.80
2023-04-06T02:04:20.639Z,2.70
2023-04-06T02:06:49.002Z,2.70
2023-04-06T02:09:17.477Z,3.58
2023-04-06T02:11:45.855Z,2.47
2023-04-06T02:14:16.314Z,3.25
2023-04-06T02:16:46.346Z,2.97
2023-04-06T02:19:14.930Z,2.50
2023-04-06T02:21:43.339Z,3.05
2023-04-06T02:24:11.902Z,2.63
2023-04-06T02:26:40.461Z,2.67
2023-04-06T02:29:09.008Z,2.53
2023-04-06T02:31:37.561Z,3.00
2023-04-06T02:34:08.337Z,2.72
2023-04-06T02:36:36.655Z,2.60
2023-04-06T02:39:05.642Z,3.08
2023-04-06T02:41:33.885Z,2.22
2023-04-06T02:44:02.213Z,2.72
2023-04-06T02:46:30.676Z,2.83
2023-04-06T02:49:01.400Z,2.35
2023-04-06T02:51:31.271Z,3.08
2023-04-06T02:53:59.694Z,2.70
2023-04-06T02:56:28.113Z,2.83
2023-04-06T02:58:56.480Z,2.22
2023-04-06T03:01:25.102Z,3.05
2023-04-06T03:03:53.903Z,2.47
2023-04-06T03:06:22.424Z,2.92
2023-04-06T03:08:52.471Z,2.67
2023-04-06T03:11:21.811Z,3.15
2023-04-06T03:13:50.386Z,3.15
2023-04-06T03:16:18.849Z,2.60
2023-04-06T03:18:48.252Z,2.63
2023-04-06T03:21:17.472Z,2.60
2023-04-06T03:23:46.016Z,3.08
2023-04-06T03:26:16.316Z,3.05
2023-04-06T03:28:44.723Z,3.38
2023-04-06T03:31:13.444Z,2.63
2023-04-06T03:33:42.121Z,3.10
2023-04-06T03:36:10.851Z,2.97
2023-04-06T03:38:40.837Z,2.70
2023-04-06T03:41:09.974Z,2.72
2023-04-06T03:43:40.273Z,2.90
2023-04-06T03:46:08.695Z,2.88
2023-04-06T03:48:37.510Z,2.40
2023-04-06T03:51:06.176Z,2.75
2023-04-06T03:53:34.671Z,2.42
2023-04-06T03:56:04.758Z,3.03
2023-04-06T03:58:35.727Z,2.92
2023-04-06T04:01:05.663Z,3.35
2023-04-06T04:03:34.110Z,2.80
2023-04-06T04:06:02.622Z,3.05
2023-04-06T04:08:30.976Z,3.00
2023-04-06T04:10:59.546Z,3.17
2023-04-06T04:13:27.823Z,2.40
2023-04-06T04:15:56.131Z,3.33
2023-04-06T04:18:26.427Z,2.70
2023-04-06T04:20:54.837Z,2.75
2023-04-06T04:23:23.152Z,2.85
2023-04-06T04:25:52.221Z,3.08
2023-04-06T04:28:20.869Z,3.22
2023-04-06T04:30:49.432Z,3.13
2023-04-06T04:33:17.956Z,3.03
2023-04-06T04:35:47.679Z,2.78
2023-04-06T04:38:16.122Z,3.50
2023-04-06T04:40:44.516Z,3.20
2023-04-06T04:43:12.940Z,3.65
2023-04-06T04:45:41.474Z,3.45
2023-04-06T04:48:10.455Z,3.83
2023-04-06T04:50:39.105Z,4.80
2023-04-06T04:53:08.983Z,3.40
2023-04-06T04:55:37.527Z,3.90
2023-04-06T04:58:06.075Z,3.40
2023-04-06T05:00:34.316Z,4.15
2023-04-06T05:03:03.034Z,3.35
2023-04-06T05:05:32.329Z,3.70
2023-04-06T05:08:00.773Z,3.97
2023-04-06T05:10:30.554Z,3.75
2023-04-06T05:12:59.126Z,3.40
2023-04-06T05:15:27.513Z,3.42
2023-04-06T05:17:56.063Z,4.40
2023-04-06T05:20:24.709Z,3.95
2023-04-06T05:22:53.032Z,4.20
2023-04-06T05:25:21.454Z,4.00
2023-04-06T05:27:51.571Z,3.47
2023-04-06T05:30:20.290Z,3.28
2023-04-06T05:32:49.387Z,3.95
2023-04-06T05:35:18.318Z,4.07
2023-04-06T05:37:47.037Z,3.80
2023-04-06T05:40:15.501Z,3.85
2023-04-06T05:42:44.964Z,3.47
2023-04-06T05:45:17.954Z,3.90
2023-04-06T05:47:46.500Z,3.60
2023-04-06T05:50:16.103Z,3.45
2023-04-06T05:52:46.456Z,3.33
2023-04-06T05:55:14.878Z,2.72
2023-04-06T05:57:43.150Z,3.13
2023-04-06T06:00:12.775Z,4.00
2023-04-06T06:02:43.546Z,3.45
2023-04-06T06:05:12.173Z,2.67
2023-04-06T06:07:40.907Z,3.60
2023-04-06T06:10:10.739Z,3.72
2023-04-06T06:12:39.275Z,3.28
2023-04-06T06:15:08.705Z,3.63
2023-04-06T06:17:38.976Z,4.07
2023-04-06T06:20:11.103Z,3.58
2023-04-06T06:22:41.271Z,3.33
2023-04-06T06:25:10.036Z,3.67
2023-04-06T06:27:38.362Z,3.20
2023-04-06T06:30:07.754Z,3.92
2023-04-06T06:32:36.002Z,4.28
2023-04-06T06:35:04.677Z,4.03
2023-04-06T06:37:34.557Z,3.85
2023-04-06T06:40:02.908Z,3.60
2023-04-06T06:42:31.217Z,3.38
2023-04-06T06:44:59.429Z,3.22
2023-04-06T06:47:27.913Z,3.78
2023-04-06T06:49:56.193Z,3.83
2023-04-06T06:52:25.159Z,4.30
2023-04-06T06:54:56.496Z,4.70
2023-04-06T06:57:26.142Z,3.85
2023-04-06T06:59:54.463Z,3.83
2023-04-06T07:02:22.975Z,3.58
2023-04-06T07:04:51.438Z,4.78
2023-04-06T07:07:19.703Z,4.00
2023-04-06T07:09:47.981Z,4.38
2023-04-06T07:12:18.307Z,4.10
2023-04-06T07:14:46.523Z,3.92
2023-04-06T07:17:15.213Z,3.88
2023-04-06T07:19:43.625Z,5.00
2023-04-06T07:22:12.325Z,4.00
2023-04-06T07:24:40.807Z,3.33
2023-04-06T07:27:09.152Z,4.78
2023-04-06T07:29:39.078Z,3.97
2023-04-06T07:32:07.750Z,3.65
2023-04-06T07:34:36.270Z,3.97
2023-04-06T07:37:04.890Z,4.03
2023-04-06T07:39:33.424Z,3.67
2023-04-06T07:42:02.444Z,3.55
2023-04-06T07:44:31.324Z,3.17
2023-04-06T07:47:01.342Z,4.18
2023-04-06T07:49:30.360Z,3.67
2023-04-06T07:51:59.030Z,3.42
2023-04-06T07:54:27.366Z,3.55
2023-04-06T07:56:55.642Z,3.50
2023-04-06T07:59:24.057Z,3.58
2023-04-06T08:01:52.496Z,3.35
2023-04-06T08:04:24.103Z,3.45
2023-04-06T08:06:52.443Z,4.10
2023-04-06T08:09:20.955Z,3.13
2023-04-06T08:11:49.806Z,3.05
2023-04-06T08:14:18.171Z,3.03
2023-04-06T08:16:46.549Z,2.28
2023-04-06T08:19:18.127Z,2.17
2023-04-06T08:21:48.285Z,2.63
2023-04-06T08:24:17.301Z,3.15
2023-04-06T08:26:45.906Z,2.80
2023-04-06T08:29:14.194Z,2.90
2023-04-06T08:31:42.722Z,2.50
2023-04-06T08:34:13.700Z,2.22
2023-04-06T08:36:43.050Z,2.22
2023-04-06T08:39:13.109Z,2.63
2023-04-06T08:41:44.277Z,2.80
2023-04-06T08:44:13.225Z,3.28
2023-04-06T08:46:41.740Z,2.60
2023-04-06T08:49:10.524Z,2.72
2023-04-06T08:51:39.992Z,3.05
2023-04-06T08:54:08.628Z,2.70
2023-04-06T08:56:41.370Z,2.88
2023-04-06T08:59:10.247Z,2.92
2023-04-06T09:01:42.494Z,3.33
2023-04-06T09:04:13.076Z,3.17
2023-04-06T09:06:42.580Z,2.90
2023-04-06T09:09:11.145Z,3.28
2023-04-06T09:11:49.034Z,3.85
2023-04-06T09:14:36.646Z,3.30
2023-04-06T09:17:05.011Z,2.97
2023-04-06T09:19:33.440Z,3.17
2023-04-06T09:22:08.216Z,4.05
2023-04-06T09:24:44.149Z,2.30
2023-04-06T09:27:14.674Z,2.20
2023-04-06T09:29:43.325Z,2.30
2023-04-06T09:32:18.172Z,3.17
2023-04-06T09:34:50.854Z,2.00
2023-04-06T09:37:21.632Z,2.38
2023-04-06T09:39:52.583Z,3.13
2023-04-06T09:42:28.043Z,2.50
2023-04-06T09:44:57.647Z,2.50
2023-04-06T09:47:29.587Z,2.28
2023-04-06T09:49:59.743Z,2.40
2023-04-06T09:52:32.053Z,1.58
2023-04-06T09:55:04.220Z,1.75
2023-04-06T09:57:38.428Z,2.28
2023-04-06T10:00:11.658Z,2.03
2023-04-06T10:02:47.977Z,2.00
2023-04-06T10:05:25.132Z,2.22
2023-04-06T10:08:00.709Z,1.80
2023-04-06T10:10:30.348Z,2.10
2023-04-06T10:13:01.102Z,1.70
2023-04-06T10:15:30.640Z,2.15
2023-04-06T10:17:59.295Z,2.25
2023-04-06T10:20:33.777Z,2.05
2023-04-06T10:23:12.166Z,1.85
2023-04-06T10:25:40.587Z,1.90
2023-04-06T10:28:11.646Z,2.10
2023-04-06T10:30:45.521Z,1.80
2023-04-06T10:33:17.347Z,2.00
2023-04-06T10:35:45.901Z,1.60
2023-04-06T10:38:15.518Z,1.50
2023-04-06T10:40:45.818Z,2.13
2023-04-06T10:43:20.351Z,2.55
2023-04-06T10:45:58.135Z,1.92
2023-04-06T10:48:27.938Z,2.47
2023-04-06T10:50:56.823Z,2.13
2023-04-06T10:53:26.176Z,1.70
2023-04-06T10:55:56.659Z,2.17
2023-04-06T10:58:29.298Z,2.10
2023-04-06T11:00:58.077Z,1.88
2023-04-06T11:03:26.355Z,2.00
2023-04-06T11:05:54.676Z,2.40
2023-04-06T11:08:28.800Z,2.28
2023-04-06T11:11:07.681Z,2.00
2023-04-06T11:13:45.343Z,1.90
2023-04-06T11:16:17.957Z,2.38
2023-04-06T11:18:53.773Z,2.65
2023-04-06T11:21:23.090Z,2.63
2023-04-06T11:23:51.430Z,2.40
2023-04-06T11:26:20.091Z,2.05
2023-04-06T11:28:50.161Z,2.03
2023-04-06T11:31:18.449Z,2.42
2023-04-06T11:33:46.619Z,2.20
2023-04-06T11:36:16.689Z,2.30
2023-04-06T11:38:45.520Z,2.40
2023-04-06T11:41:13.832Z,1.73
2023-04-06T11:43:50.063Z,2.00
2023-04-06T11:46:21.469Z,2.00
2023-04-06T11:48:49.880Z,1.77
2023-04-06T11:51:25.478Z,2.00
2023-04-06T11:53:53.652Z,2.08
2023-04-06T11:56:29.549Z,2.00
2023-04-06T11:59:00.941Z,1.80
2023-04-06T12:01:29.939Z,2.00
2023-04-06T12:03:58.360Z,1.42
2023-04-06T12:06:27.148Z,1.75
2023-04-06T12:08:55.473Z,2.05
2023-04-06T12:11:24.286Z,1.92
2023-04-06T12:13:52.541Z,1.67
2023-04-06T12:16:22.510Z,2.08
2023-04-06T12:18:50.811Z,2.10
2023-04-06T12:21:19.272Z,2.00
2023-04-06T12:23:47.739Z,2.08
2023-04-06T12:26:16.333Z,1.75
2023-04-06T12:28:45.837Z,1.90
2023-04-06T12:31:18.087Z,2.08
2023-04-06T12:33:49.662Z,1.67
2023-04-06T12:36:20.247Z,2.17
2023-04-06T12:38:49.607Z,2.25
2023-04-06T12:41:18.324Z,2.03
2023-04-06T12:43:46.820Z,2.15
2023-04-06T12:46:15.343Z,1.80
2023-04-06T12:48:43.717Z,2.08
2023-04-06T12:51:13.413Z,2.10
2023-04-06T12:53:41.959Z,2.03
2023-04-06T12:56:15.658Z,1.65
2023-04-06T12:58:43.946Z,1.67
2023-04-06T13:01:13.841Z,1.58
2023-04-06T13:03:42.821Z,2.17
2023-04-06T13:06:14.094Z,1.60
2023-04-06T13:08:42.696Z,2.67
2023-04-06T13:11:11.180Z,1.67
2023-04-06T13:13:39.905Z,1.88
2023-04-06T13:16:10.079Z,1.42
2023-04-06T13:18:40.174Z,2.08
2023-04-06T13:21:08.807Z,2.70
2023-04-06T13:23:38.456Z,2.35
2023-04-06T13:26:07.914Z,2.33
2023-04-06T13:28:38.835Z,1.65
2023-04-06T13:31:09.206Z,1.50
2023-04-06T13:33:37.776Z,2.25
2023-04-06T13:36:08.557Z,1.70
2023-04-06T13:38:40.038Z,2.63
2023-04-06T13:41:08.598Z,1.80
2023-04-06T13:43:36.873Z,2.33
2023-04-06T13:46:05.622Z,1.85
2023-04-06T13:48:33.922Z,2.50
2023-04-06T13:51:10.955Z,2.00
2023-04-06T13:53:41.873Z,2.00
2023-04-06T13:56:10.642Z,1.75
2023-04-06T13:58:38.992Z,1.92
2023-04-06T14:01:11.280Z,2.33
2023-04-06T14:03:40.713Z,1.77
2023-04-06T14:06:29.690Z,2.00
2023-04-06T14:09:00.778Z,1.88
2023-04-06T14:11:28.991Z,1.83
2023-04-06T14:13:58.570Z,1.90
2023-04-06T14:16:27.819Z,2.33
2023-04-06T14:18:56.381Z,1.85
2023-04-06T14:21:24.530Z,2.03
2023-04-06T14:23:53.689Z,2.13
2023-04-06T14:26:23.846Z,1.90
2023-04-06T14:28:54.284Z,1.95
2023-04-06T14:31:22.912Z,2.13
2023-04-06T14:33:51.464Z,1.80
2023-04-06T14:36:19.752Z,2.38
2023-04-06T14:38:48.885Z,2.15
2023-04-06T14:41:24.478Z,2.25
2023-04-06T14:43:53.748Z,2.15
2023-04-06T14:46:22.016Z,1.90
2023-04-06T14:48:50.305Z,2.58
2023-04-06T14:51:18.706Z,1.88
2023-04-06T14:53:47.776Z,2.30
2023-04-06T14:56:22.866Z,2.00
2023-04-06T14:58:51.914Z,2.38
2023-04-06T15:01:21.970Z,2.20
2023-04-06T15:03:50.718Z,2.47
2023-04-06T15:06:21.677Z,2.22
2023-04-06T15:08:50.964Z,2.15
2023-04-06T15:11:19.497Z,2.47
2023-04-06T15:13:49.143Z,2.33
2023-04-06T15:16:17.684Z,2.75
2023-04-06T15:18:46.072Z,2.88
2023-04-06T15:21:14.367Z,2.15
2023-04-06T15:23:42.775Z,2.08
2023-04-06T15:26:10.890Z,2.33
2023-04-06T15:28:39.103Z,2.17
2023-04-06T15:31:28.307Z,2.63
2023-04-06T15:34:01.646Z,2.65
2023-04-06T15:36:31.695Z,2.40
2023-04-06T15:39:00.694Z,2.30
2023-04-06T15:41:29.121Z,2.08
2023-04-06T15:43:57.720Z,2.20
2023-04-06T15:46:29.000Z,2.35
2023-04-06T15:48:57.716Z,2.70
2023-04-06T15:51:26.402Z,2.13
2023-04-06T15:53:54.736Z,2.08
2023-04-06T15:56:23.032Z,2.85
2023-04-06T15:58:51.329Z,1.90
2023-04-06T16:01:20.714Z,2.13
2023-04-06T16:03:50.588Z,2.38
2023-04-06T16:06:19.298Z,2.75
2023-04-06T16:08:47.794Z,2.42
2023-04-06T16:11:16.358Z,2.35
2023-04-06T16:13:47.290Z,2.35
2023-04-06T16:16:22.047Z,2.55
2023-04-06T16:18:51.882Z,1.98
2023-04-06T16:21:20.027Z,1.73
2023-04-06T16:23:48.742Z,2.53
2023-04-06T16:26:18.228Z,2.80
2023-04-06T16:28:47.743Z,2.45
2023-04-06T16:31:21.861Z,2.58
2023-04-06T16:33:53.217Z,1.95
2023-04-06T16:36:25.229Z,2.70
2023-04-06T16:38:53.627Z,2.88
2023-04-06T16:41:22.414Z,3.33
2023-04-06T16:43:51.102Z,2.55
2023-04-06T16:46:19.486Z,2.88
2023-04-06T16:48:47.683Z,2.40
2023-04-06T16:51:18.848Z,2.55
2023-04-06T16:53:48.152Z,2.70
2023-04-06T16:56:16.632Z,2.95
2023-04-06T16:58:45.319Z,2.80
2023-04-06T17:01:20.800Z,2.75
2023-04-06T17:03:49.693Z,2.30
2023-04-06T17:06:19.923Z,2.30
2023-04-06T17:08:49.599Z,3.05
2023-04-06T17:11:23.533Z,1.95
2023-04-06T17:13:56.231Z,1.95
2023-04-06T17:16:25.926Z,2.60
2023-04-06T17:18:55.467Z,2.60
2023-04-06T17:21:26.364Z,2.40
2023-04-06T17:23:54.969Z,3.00
2023-04-06T17:26:23.383Z,3.03
2023-04-06T17:28:51.593Z,3.40
2023-04-06T17:31:20.216Z,2.80
2023-04-06T17:33:48.699Z,2.70
2023-04-06T17:36:17.032Z,2.70
2023-04-06T17:38:46.742Z,3.30
2023-04-06T17:41:16.197Z,2.63
2023-04-06T17:43:44.441Z,2.75
2023-04-06T17:46:13.064Z,2.33
2023-04-06T17:48:41.788Z,2.72
2023-04-06T17:51:10.026Z,3.00
2023-04-06T17:53:38.293Z,3.28
2023-04-06T17:56:08.236Z,3.30
2023-04-06T17:58:36.587Z,3.38
2023-04-06T18:01:08.617Z,3.17
2023-04-06T18:03:36.921Z,3.08
2023-04-06T18:06:12.132Z,3.22
2023-04-06T18:08:40.521Z,2.88
2023-04-06T18:11:16.164Z,3.63
2023-04-06T18:13:44.435Z,3.38
2023-04-06T18:16:12.842Z,3.47
2023-04-06T18:18:41.212Z,3.00
2023-04-06T18:21:09.961Z,3.70
2023-04-06T18:23:38.575Z,3.22
2023-04-06T18:26:07.855Z,3.40
2023-04-06T18:28:37.754Z,3.42
2023-04-06T18:31:05.980Z,3.58
2023-04-06T18:33:34.233Z,3.80
2023-04-06T18:36:02.489Z,2.75
2023-04-06T18:38:30.859Z,3.42
2023-04-06T18:40:59.521Z,3.13
2023-04-06T18:43:28.576Z,2.67
2023-04-06T18:46:00.741Z,3.38
2023-04-06T18:48:29.118Z,3.55
2023-04-06T18:51:02.038Z,3.83
2023-04-06T18:53:30.509Z,3.20
2023-04-06T18:55:59.413Z,3.72
2023-04-06T18:58:28.323Z,3.75
2023-04-06T19:00:58.716Z,3.40
2023-04-06T19:03:27.699Z,3.33
2023-04-06T19:05:56.420Z,3.35
2023-04-06T19:08:24.640Z,3.72
2023-04-06T19:10:54.165Z,3.30
2023-04-06T19:13:22.676Z,2.75
2023-04-06T19:15:50.941Z,2.75
2023-04-06T19:18:21.039Z,3.30
2023-04-06T19:20:49.755Z,2.28
2023-04-06T19:23:18.030Z,3.10
2023-04-06T19:25:46.423Z,3.03
2023-04-06T19:28:15.191Z,3.00
2023-04-06T19:30:43.682Z,3.25
2023-04-06T19:33:12.033Z,2.53
2023-04-06T19:35:42.914Z,2.75
2023-04-06T19:38:11.317Z,3.58
2023-04-06T19:40:39.700Z,2.53
2023-04-06T19:43:08.326Z,2.90
2023-04-06T19:45:36.696Z,2.47
2023-04-06T19:48:05.055Z,3.10
2023-04-06T19:50:34.355Z,3.15
2023-04-06T19:53:04.167Z,3.50
2023-04-06T19:55:32.510Z,3.42
2023-04-06T19:58:01.069Z,2.60
2023-04-06T20:00:29.494Z,3.53
2023-04-06T20:02:57.937Z,3.30
2023-04-06T20:05:26.498Z,3.20
2023-04-06T20:07:55.213Z,2.50
2023-04-06T20:10:25.180Z,2.88
2023-04-06T20:12:53.599Z,3.25
2023-04-06T20:15:23.142Z,3.45
2023-04-06T20:17:51.792Z,2.85
2023-04-06T20:20:20.427Z,2.22
2023-04-06T20:22:50.312Z,3.28
2023-04-06T20:25:19.773Z,2.60
2023-04-06T20:27:49.513Z,2.95
2023-04-06T20:30:17.884Z,2.78
2023-04-06T20:32:46.357Z,3.08
2023-04-06T20:35:14.847Z,3.45
2023-04-06T20:37:43.223Z,4.20
2023-04-06T20:40:12.865Z,3.50
2023-04-06T20:42:41.888Z,2.60
2023-04-06T20:45:12.815Z,2.58
2023-04-06T20:47:41.437Z,2.95
2023-04-06T20:50:10.664Z,2.63
2023-04-06T20:52:39.442Z,2.50
2023-04-06T20:55:09.208Z,2.58
2023-04-06T20:57:37.593Z,2.70
2023-04-06T21:00:08.446Z,3.30
2023-04-06T21:02:38.536Z,3.10
2023-04-06T21:05:08.155Z,2.80
2023-04-06T21:07:36.377Z,3.13
2023-04-06T21:10:05.094Z,3.78
2023-04-06T21:12:33.450Z,3.42
2023-04-06T21:15:02.266Z,3.28
2023-04-06T21:17:30.691Z,3.63
2023-04-06T21:20:00.749Z,3.80
2023-04-06T21:22:29.257Z,3.05
2023-04-06T21:24:57.727Z,3.08
2023-04-06T21:27:26.347Z,2.65
2023-04-06T21:29:54.726Z,3.55
2023-04-06T21:32:23.012Z,3.50
2023-04-06T21:34:51.698Z,3.30
2023-04-06T21:37:21.744Z,3.67
2023-04-06T21:39:50.038Z,2.78
2023-04-06T21:42:18.472Z,3.33
2023-04-06T21:44:46.749Z,3.47
2023-04-06T21:47:15.127Z,3.28
2023-04-06T21:49:43.427Z,3.03
2023-04-06T21:52:11.781Z,2.72
2023-04-06T21:54:41.644Z,3.30
2023-04-06T21:57:10.027Z,2.97
2023-04-06T21:59:38.503Z,3.97
2023-04-06T22:02:07.193Z,3.58
2023-04-06T22:04:35.895Z,3.78
2023-04-06T22:07:04.682Z,3.13
2023-04-06T22:09:33.101Z,3.17
2023-04-06T22:12:02.807Z,3.72
2023-04-06T22:14:31.758Z,3.90
2023-04-06T22:17:00.176Z,4.30
2023-04-06T22:19:28.571Z,3.50
2023-04-06T22:21:57.046Z,3.00
2023-04-06T22:24:25.594Z,3.58
2023-04-06T22:26:54.649Z,2.92
2023-04-06T22:29:24.932Z,3.83
2023-04-06T22:31:53.162Z,4.32
2023-04-06T22:34:21.599Z,3.67
2023-04-06T22:36:50.019Z,3.20
2023-04-06T22:39:18.581Z,4.07
2023-04-06T22:41:46.939Z,4.15
2023-04-06T22:44:15.722Z,3.53
2023-04-06T22:46:46.340Z,3.83
2023-04-06T22:49:14.983Z,4.53
2023-04-06T22:51:43.335Z,4.15
2023-04-06T22:54:12.103Z,3.72
2023-04-06T22:56:40.717Z,3.20
2023-04-06T22:59:09.111Z,4.10
2023-04-06T23:01:37.950Z,4.70
2023-04-06T23:04:08.214Z,3.72
2023-04-06T23:06:36.660Z,3.22
2023-04-06T23:09:05.389Z,3.58
2023-04-06T23:11:33.846Z,4.05
2023-04-06T23:14:02.510Z,4.22
2023-04-06T23:16:30.838Z,4.60
2023-04-06T23:18:59.333Z,4.55
2023-04-06T23:21:30.170Z,3.92
2023-04-06T23:24:00.111Z,4.57
2023-04-06T23:26:28.967Z,4.25
2023-04-06T23:28:57.364Z,4.07
2023-04-06T23:31:25.916Z,4.15
2023-04-06T23:33:54.222Z,4.28
2023-04-06T23:36:22.845Z,4.45
2023-04-06T23:38:52.651Z,4.90
2023-04-06T23:41:21.086Z,5.10
2023-04-06T23:43:49.454Z,5.28
2023-04-06T23:46:18.502Z,5.18
2023-04-06T23:48:47.007Z,4.63
2023-04-06T23:51:15.803Z,4.00
2023-04-06T23:53:44.198Z,5.85
2023-04-06T23:56:13.847Z,4.93
2023-04-06T23:58:42.195Z,4.97
